Archival Weather

Snohomish County (Paine Fld)

Everett, Washington (KPAE)

Report from: Tuesday, November 14, 2023 3:53 AM PST
Current time: Friday, June 14, 2024 4:32 AM PDT

Current weather – Weather history – Daily summaries
Weather forecast

Temperature2.2°C (36.0°F)
Dew point0.0°C (32.0°F)
Winds Calm
Visibility10 mi. (16.1 km)
Clouds Sky clear
Altimeter30.13 in.Hg (1020 mB)
Precip last 24 hours0.10 in. (3 mm)
Relative humidity85 %
Density altitude-1,711 ft. (-522 m)
Sea-level pressure102.1 kPa (1021 mB, 30.14 in.Hg)
Max temp last 6 hours5.6°C (42.1°F)
Min temp last 6 hours1.7°C (35.1°F)
Remarks Fully automated report
Automated weather observing station with precipitation discriminator
Pressure falling more quickly
Flight conditions Visual Meteorological Conditions
Raw dataKPAE 141153Z AUTO 00000KT 10SM CLR 02/00 A3013 RMK AO2 SLP205 70010 T00220000 10056 20017 58008
An error has occurred. This application may no longer respond until reloaded. Reload 🗙